createdAt,value
2023-02-25T01:36:35.278Z,99.90
2023-02-25T01:39:03.607Z,99.90
2023-02-25T01:41:32.515Z,99.90
2023-02-25T01:44:21.080Z,99.90
2023-02-25T01:46:50.935Z,99.90
2023-02-25T01:49:20.901Z,99.90
2023-02-25T01:51:51.778Z,99.90
2023-02-25T01:54:19.949Z,99.90
2023-02-25T01:56:50.942Z,99.90
2023-02-25T01:59:20.042Z,99.90
2023-02-25T02:01:47.222Z,99.90
2023-02-25T02:04:15.378Z,99.90
2023-02-25T02:06:45.457Z,99.90
2023-02-25T02:09:17.963Z,99.90
2023-02-25T02:11:44.794Z,99.90
2023-02-25T02:14:34.505Z,99.90
2023-02-25T02:17:16.085Z,99.90
2023-02-25T02:19:51.896Z,99.90
2023-02-25T02:22:24.211Z,99.90
2023-02-25T02:25:18.906Z,99.90
2023-02-25T02:28:24.114Z,99.90
2023-02-25T02:30:53.936Z,99.90
2023-02-25T02:33:23.806Z,99.90
2023-02-25T02:35:59.895Z,99.90
2023-02-25T02:38:37.035Z,99.90
2023-02-25T02:41:16.018Z,99.90
2023-02-25T02:44:06.595Z,99.90
2023-02-25T02:46:42.685Z,99.90
2023-02-25T02:49:32.085Z,99.90
2023-02-25T02:52:22.676Z,99.90
2023-02-25T02:55:02.706Z,99.90
2023-02-25T03:07:32.262Z,99.90
2023-02-25T03:10:01.898Z,99.90
2023-02-25T03:12:30.088Z,99.90
2023-02-25T03:14:56.978Z,99.90
2023-02-25T03:17:28.613Z,99.90
2023-02-25T03:20:14.274Z,99.90
2023-02-25T03:22:45.565Z,99.90
2023-02-25T03:25:21.826Z,99.90
2023-02-25T03:27:54.719Z,99.90
2023-02-25T03:30:47.061Z,99.90
2023-02-25T03:33:28.332Z,99.90
2023-02-25T03:35:56.899Z,99.90
2023-02-25T03:38:28.415Z,99.90
2023-02-25T03:40:57.735Z,99.90
2023-02-25T03:43:33.006Z,99.90
2023-02-25T03:46:00.680Z,99.90
2023-02-25T03:48:29.350Z,99.90
2023-02-25T03:51:05.438Z,99.90
2023-02-25T03:53:35.040Z,99.90
2023-02-25T03:56:08.877Z,99.90
2023-02-25T03:58:40.810Z,99.90
2023-02-25T04:01:14.394Z,99.90
2023-02-25T04:03:42.452Z,99.90
2023-02-25T04:06:12.250Z,99.90
2023-02-25T04:08:39.128Z,99.90
2023-02-25T04:11:05.959Z,99.90
2023-02-25T04:13:32.722Z,99.90
2023-02-25T04:15:59.671Z,99.90
2023-02-25T04:18:26.715Z,99.90
2023-02-25T04:20:53.797Z,99.90
2023-02-25T04:23:20.616Z,99.90
2023-02-25T04:25:47.313Z,99.90
2023-02-25T04:28:14.054Z,99.90
2023-02-25T04:30:40.854Z,99.90
2023-02-25T04:33:07.880Z,99.90
2023-02-25T04:35:34.655Z,99.90
2023-02-25T04:38:01.437Z,99.90
2023-02-25T04:40:28.336Z,99.90
2023-02-25T04:42:55.094Z,99.90
2023-02-25T04:45:27.109Z,99.90
2023-02-25T04:47:55.787Z,99.90
2023-02-25T04:50:22.698Z,99.90
2023-02-25T04:52:49.506Z,99.90
2023-02-25T04:55:16.411Z,99.90
2023-02-25T04:57:43.442Z,99.90
2023-02-25T05:00:21.524Z,99.90
2023-02-25T05:02:48.773Z,99.90
2023-02-25T05:05:17.075Z,99.90
2023-02-25T05:07:43.990Z,99.90
2023-02-25T05:10:12.895Z,99.90
2023-02-25T05:12:39.655Z,99.90
2023-02-25T05:15:08.606Z,99.90
2023-02-25T05:17:36.159Z,99.90
2023-02-25T05:20:07.941Z,99.90
2023-02-25T05:22:35.181Z,99.90
2023-02-25T05:25:01.950Z,99.90
2023-02-25T05:27:28.730Z,99.90
2023-02-25T05:29:56.070Z,99.90
2023-02-25T05:32:23.180Z,99.90
2023-02-25T05:34:50.062Z,99.90
2023-02-25T05:37:16.884Z,99.90
2023-02-25T05:39:43.913Z,99.90
2023-02-25T05:42:11.579Z,99.90
2023-02-25T05:44:38.454Z,99.90
2023-02-25T05:47:05.330Z,99.90
2023-02-25T05:49:32.123Z,99.90
2023-02-25T05:51:58.858Z,99.90
2023-02-25T05:54:25.791Z,99.90
2023-02-25T05:56:53.095Z,99.90
2023-02-25T05:59:19.995Z,99.90
2023-02-25T06:01:46.904Z,99.90
2023-02-25T06:04:13.764Z,99.90
2023-02-25T06:06:41.794Z,99.90
2023-02-25T06:09:10.347Z,99.90
2023-02-25T06:11:37.273Z,99.90
2023-02-25T06:14:04.092Z,99.90
2023-02-25T06:16:32.211Z,99.90
2023-02-25T06:19:01.133Z,99.90
2023-02-25T06:21:28.152Z,99.90
2023-02-25T06:23:55.335Z,99.90
2023-02-25T06:26:22.627Z,99.90
2023-02-25T06:28:49.594Z,99.90
2023-02-25T06:31:18.593Z,99.90
2023-02-25T06:33:46.750Z,99.90
2023-02-25T06:36:13.848Z,99.90
2023-02-25T06:38:40.931Z,99.90
2023-02-25T06:41:15.568Z,99.90
2023-02-25T06:43:42.866Z,99.90
2023-02-25T06:46:12.151Z,99.90
2023-02-25T06:48:39.273Z,99.90
2023-02-25T06:51:09.580Z,99.90
2023-02-25T06:53:37.762Z,99.90
2023-02-25T06:56:05.010Z,99.90
2023-02-25T06:58:31.848Z,99.90
2023-02-25T07:00:59.740Z,99.90
2023-02-25T07:03:26.934Z,99.90
2023-02-25T07:05:54.251Z,99.90
2023-02-25T07:08:21.004Z,99.90
2023-02-25T07:10:47.791Z,99.90
2023-02-25T07:13:14.794Z,99.90
2023-02-25T07:15:41.613Z,99.90
2023-02-25T07:18:08.426Z,99.90
2023-02-25T07:20:35.274Z,99.90
2023-02-25T07:23:05.904Z,99.90
2023-02-25T07:25:32.812Z,99.90
2023-02-25T07:27:59.881Z,99.90
2023-02-25T07:30:26.787Z,99.90
2023-02-25T07:32:53.587Z,99.90
2023-02-25T07:35:20.417Z,99.90
2023-02-25T07:37:47.161Z,99.90
2023-02-25T07:40:16.844Z,99.90
2023-02-25T07:42:43.769Z,99.90
2023-02-25T07:45:12.711Z,99.90
2023-02-25T07:47:40.078Z,99.90
2023-02-25T07:50:09.451Z,99.90
2023-02-25T07:52:37.264Z,99.90
2023-02-25T07:55:05.270Z,99.90
2023-02-25T07:57:32.345Z,99.90
2023-02-25T07:59:59.401Z,99.90
2023-02-25T08:02:26.248Z,99.90
2023-02-25T08:04:53.060Z,99.90
2023-02-25T08:07:20.460Z,99.90
2023-02-25T08:09:47.255Z,99.90
2023-02-25T08:12:14.073Z,99.90
2023-02-25T08:14:40.875Z,99.90
2023-02-25T08:17:07.668Z,99.90
2023-02-25T08:19:34.558Z,99.90
2023-02-25T08:22:01.374Z,99.90
2023-02-25T08:24:28.294Z,99.90
2023-02-25T08:26:55.083Z,99.90
2023-02-25T08:29:22.734Z,99.90
2023-02-25T08:31:52.604Z,99.90
2023-02-25T08:34:19.615Z,99.90
2023-02-25T08:36:46.392Z,99.90
2023-02-25T08:39:13.263Z,99.90
2023-02-25T08:41:40.240Z,99.90
2023-02-25T08:44:07.080Z,99.90
2023-02-25T08:46:34.217Z,99.90
2023-02-25T08:49:01.533Z,99.90
2023-02-25T08:51:34.148Z,99.90
2023-02-25T08:54:06.860Z,99.90
2023-02-25T08:56:35.629Z,99.90
2023-02-25T08:59:02.821Z,99.90
2023-02-25T09:01:44.454Z,99.90
2023-02-25T09:04:21.551Z,99.90
2023-02-25T09:06:49.701Z,99.90
2023-02-25T09:09:18.601Z,99.90
2023-02-25T09:11:46.318Z,99.90
2023-02-25T09:14:13.912Z,99.90
2023-02-25T09:16:41.105Z,99.90
2023-02-25T09:19:07.997Z,99.90
2023-02-25T09:21:36.222Z,99.90
2023-02-25T09:24:03.098Z,99.90
2023-02-25T09:26:29.908Z,99.90
2023-02-25T09:28:59.659Z,99.90
2023-02-25T09:31:27.022Z,99.90
2023-02-25T09:33:54.406Z,99.90
2023-02-25T09:36:21.885Z,99.90
2023-02-25T09:38:50.546Z,99.90
2023-02-25T09:41:35.642Z,99.90
2023-02-25T09:44:08.424Z,99.90
2023-02-25T09:46:41.309Z,99.90
2023-02-25T09:49:20.344Z,99.90
2023-02-25T09:51:56.710Z,99.90
2023-02-25T09:54:26.954Z,99.90
2023-02-25T09:56:59.212Z,99.90
2023-02-25T09:59:28.877Z,99.90
2023-02-25T10:02:05.591Z,99.90
2023-02-25T10:04:41.439Z,99.90
2023-02-25T10:07:20.818Z,99.90
2023-02-25T10:09:47.575Z,99.90
2023-02-25T10:12:54.125Z,99.90
2023-02-25T10:15:32.716Z,99.90
2023-02-25T10:18:47.744Z,99.90
2023-02-25T10:21:30.732Z,99.90
2023-02-25T10:24:16.504Z,99.90
2023-02-25T10:26:49.515Z,99.90
2023-02-25T10:29:38.210Z,99.90
2023-02-25T10:32:21.300Z,99.90
2023-02-25T10:34:50.691Z,99.90
2023-02-25T10:37:27.291Z,99.90
2023-02-25T10:40:00.613Z,99.90
2023-02-25T10:42:28.517Z,99.90
2023-02-25T10:45:10.799Z,99.90
2023-02-25T10:47:42.186Z,99.90
2023-02-25T10:50:16.014Z,99.90
2023-02-25T10:53:01.997Z,99.90
2023-02-25T10:55:43.312Z,99.90
2023-02-25T10:58:40.767Z,99.90
2023-02-25T11:01:13.951Z,99.90
2023-02-25T11:04:02.792Z,99.90
2023-02-25T11:06:38.033Z,99.90
2023-02-25T11:09:26.949Z,99.90
2023-02-25T11:11:55.936Z,99.90
2023-02-25T11:14:31.843Z,99.90
2023-02-25T11:17:13.673Z,99.90
2023-02-25T13:12:30.413Z,96.90
2023-02-25T13:15:18.627Z,87.90
2023-02-25T13:23:04.764Z,90.10
2023-02-25T13:26:05.246Z,91.40
2023-02-25T13:29:03.394Z,88.40
2023-02-25T13:31:57.831Z,88.00
2023-02-25T13:34:57.116Z,82.80
2023-02-25T13:37:47.273Z,79.90
2023-02-25T13:40:17.574Z,74.60
2023-02-25T13:43:03.498Z,76.80
2023-02-25T13:46:11.717Z,74.80
2023-02-25T13:49:02.823Z,73.80
2023-02-25T13:51:54.466Z,71.70
2023-02-25T13:54:52.216Z,73.70
2023-02-25T13:57:50.418Z,71.20
2023-02-25T14:00:23.856Z,69.30
2023-02-25T14:03:21.500Z,66.00
2023-02-25T14:06:09.036Z,70.90
2023-02-25T14:08:41.882Z,66.40
2023-02-25T14:11:37.861Z,68.10
2023-02-25T14:14:39.850Z,66.00
2023-02-25T14:17:33.230Z,65.20
2023-02-25T14:20:39.176Z,66.20
2023-02-25T14:23:15.012Z,66.30
2023-02-25T14:26:13.388Z,69.10
2023-02-25T14:29:07.598Z,64.80
2023-02-25T14:32:02.562Z,57.90
2023-02-25T14:35:04.589Z,57.70
2023-02-25T14:37:55.737Z,59.50
2023-02-25T14:40:43.927Z,59.00
2023-02-25T14:43:32.483Z,60.60
2023-02-25T14:46:23.744Z,60.60
2023-02-25T14:49:21.616Z,64.20
2023-02-25T14:52:20.518Z,64.30
2023-02-25T14:55:24.882Z,67.10
2023-02-25T14:58:30.320Z,66.00
2023-02-25T15:01:39.559Z,68.00
2023-02-25T15:04:38.813Z,65.70
2023-02-25T15:07:32.370Z,66.90
2023-02-25T15:10:08.602Z,65.90
2023-02-25T15:12:50.670Z,68.40
